createdAt,value
2023-02-15T00:01:13.896Z,15.73
2023-02-15T00:03:35.405Z,11.57
2023-02-15T00:05:58.665Z,13.83
2023-02-15T00:08:20.155Z,13.40
2023-02-15T00:10:41.586Z,13.03
2023-02-15T00:13:03.738Z,13.53
2023-02-15T00:15:26.927Z,13.97
2023-02-15T00:17:48.368Z,12.93
2023-02-15T00:20:10.175Z,11.73
2023-02-15T00:22:31.633Z,11.50
2023-02-15T00:24:53.066Z,10.20
2023-02-15T00:27:14.590Z,12.47
2023-02-15T00:29:36.082Z,12.57
2023-02-15T00:31:57.572Z,11.53
2023-02-15T00:34:21.837Z,12.47
2023-02-15T00:36:44.466Z,12.20
2023-02-15T00:39:06.641Z,11.70
2023-02-15T00:41:28.144Z,13.40
2023-02-15T00:43:49.563Z,12.87
2023-02-15T00:46:11.127Z,13.67
2023-02-15T00:48:33.353Z,11.87
2023-02-15T00:50:57.463Z,12.20
2023-02-15T00:53:19.465Z,12.73
2023-02-15T00:55:41.312Z,12.50
2023-02-15T00:58:02.793Z,10.97
2023-02-15T01:00:24.304Z,11.37
2023-02-15T01:02:45.759Z,11.13
2023-02-15T01:05:07.471Z,12.60
2023-02-15T01:07:28.938Z,11.40
2023-02-15T01:09:50.390Z,11.47
2023-02-15T01:12:11.833Z,12.93
2023-02-15T01:14:33.278Z,12.63
2023-02-15T01:16:54.711Z,13.80
2023-02-15T01:19:16.147Z,11.67
2023-02-15T01:21:37.626Z,12.67
2023-02-15T01:24:00.108Z,13.73
2023-02-15T01:26:21.614Z,12.87
2023-02-15T01:28:43.221Z,13.80
2023-02-15T01:31:14.159Z,12.50
2023-02-15T01:33:36.946Z,16.43
2023-02-15T01:35:59.784Z,11.40
2023-02-15T01:38:21.445Z,12.70
2023-02-15T01:40:42.854Z,12.80
2023-02-15T01:43:04.305Z,14.40
2023-02-15T01:45:29.124Z,12.67
2023-02-15T01:47:59.290Z,13.50
2023-02-15T01:50:40.149Z,12.73
2023-02-15T01:53:19.037Z,11.63
2023-02-15T01:55:47.904Z,11.73
2023-02-15T01:58:10.046Z,12.60
2023-02-15T02:00:32.619Z,12.23
2023-02-15T02:02:56.674Z,12.93
2023-02-15T02:05:18.161Z,13.07
2023-02-15T02:07:44.810Z,12.20
2023-02-15T02:10:08.530Z,13.03
2023-02-15T02:12:30.826Z,12.07
2023-02-15T02:14:54.271Z,10.73
2023-02-15T02:17:22.324Z,11.57
2023-02-15T02:19:46.536Z,12.00
2023-02-15T02:22:16.765Z,12.27
2023-02-15T02:25:08.790Z,13.90
2023-02-15T02:27:40.290Z,14.70
2023-02-15T02:30:18.312Z,11.40
2023-02-15T02:33:00.743Z,11.13
2023-02-15T02:35:33.714Z,13.37
2023-02-15T02:38:05.628Z,11.43
2023-02-15T02:40:34.274Z,11.43
2023-02-15T02:43:15.695Z,11.47
2023-02-15T02:45:44.436Z,10.93
2023-02-15T02:48:14.398Z,12.20
2023-02-15T02:50:35.825Z,11.50
2023-02-15T02:52:59.407Z,11.83
2023-02-15T02:55:32.646Z,11.40
2023-02-15T02:58:25.474Z,12.37
2023-02-15T03:00:54.992Z,11.67
2023-02-15T03:03:39.088Z,11.10
2023-02-15T03:06:05.642Z,10.80
2023-02-15T03:08:33.123Z,12.00
2023-02-15T03:10:57.086Z,10.37
2023-02-15T03:13:18.741Z,12.17
2023-02-15T03:16:01.381Z,12.97
2023-02-15T03:18:29.162Z,11.40
2023-02-15T03:20:53.114Z,12.43
2023-02-15T03:23:21.962Z,11.13
2023-02-15T03:25:47.306Z,11.63
2023-02-15T03:28:14.104Z,12.43
2023-02-15T03:30:37.602Z,13.47
2023-02-15T03:33:01.017Z,12.20
2023-02-15T03:35:25.846Z,13.13
2023-02-15T03:37:58.333Z,15.83
2023-02-15T03:40:44.097Z,11.70
2023-02-15T03:43:33.690Z,11.60
2023-02-15T03:46:02.104Z,10.73
2023-02-15T03:48:33.215Z,12.03
2023-02-15T03:51:21.767Z,10.23
2023-02-15T03:53:45.610Z,11.47
2023-02-15T03:56:07.358Z,11.20
2023-02-15T03:58:47.572Z,11.73
2023-02-15T04:01:37.921Z,11.50
2023-02-15T04:04:08.760Z,11.30
2023-02-15T04:06:30.218Z,11.70
2023-02-15T04:09:10.433Z,11.23
2023-02-15T04:11:31.844Z,11.07
2023-02-15T04:13:57.627Z,13.23
2023-02-15T04:16:19.190Z,12.40
2023-02-15T04:19:03.232Z,11.40
2023-02-15T04:21:45.608Z,15.03
2023-02-15T04:24:25.955Z,13.53
2023-02-15T04:26:48.785Z,12.60
2023-02-15T04:29:10.259Z,13.00
2023-02-15T04:31:31.764Z,15.37
2023-02-15T04:33:53.226Z,13.77
2023-02-15T04:36:14.668Z,14.33
2023-02-15T04:38:36.105Z,14.63
2023-02-15T04:40:57.554Z,15.07
2023-02-15T04:43:20.082Z,12.77
2023-02-15T04:45:41.662Z,12.50
2023-02-15T04:48:03.194Z,12.07
2023-02-15T04:50:24.669Z,12.73
2023-02-15T04:52:46.122Z,12.17
2023-02-15T04:55:08.011Z,13.57
2023-02-15T04:57:29.717Z,12.50
2023-02-15T04:59:51.158Z,13.10
2023-02-15T05:02:12.634Z,17.07
2023-02-15T05:04:34.182Z,21.37
2023-02-15T05:06:55.812Z,18.93
2023-02-15T05:09:17.637Z,25.83
2023-02-15T05:11:39.082Z,17.23
2023-02-15T05:14:00.556Z,14.80
2023-02-15T05:16:22.124Z,16.33
2023-02-15T05:18:43.783Z,12.97
2023-02-15T05:21:05.296Z,13.53
2023-02-15T05:23:26.957Z,13.23
2023-02-15T05:26:08.394Z,14.00
2023-02-15T05:28:29.859Z,12.00
2023-02-15T05:31:06.706Z,12.07
2023-02-15T05:33:28.249Z,13.07
2023-02-15T05:35:49.678Z,12.90
2023-02-15T05:38:11.117Z,13.43
2023-02-15T05:40:32.663Z,13.17
2023-02-15T05:42:54.163Z,13.60
2023-02-15T05:45:16.558Z,14.80
2023-02-15T05:47:37.984Z,13.27
2023-02-15T05:49:59.413Z,14.07
2023-02-15T05:52:20.876Z,11.67
2023-02-15T05:54:42.343Z,12.73
2023-02-15T05:57:03.768Z,14.33
2023-02-15T05:59:25.237Z,13.70
2023-02-15T06:01:46.690Z,14.00
2023-02-15T06:04:08.175Z,12.63
2023-02-15T06:06:29.605Z,11.20
2023-02-15T06:08:51.041Z,14.30
2023-02-15T06:11:12.478Z,14.53
2023-02-15T06:13:37.225Z,13.67
2023-02-15T06:16:00.340Z,14.70
2023-02-15T06:18:22.267Z,15.00
2023-02-15T06:20:46.819Z,12.80
2023-02-15T06:23:08.329Z,12.67
2023-02-15T06:25:29.919Z,12.60
2023-02-15T06:27:51.618Z,13.47
2023-02-15T06:30:13.919Z,12.07
2023-02-15T06:32:35.454Z,12.63
2023-02-15T06:34:56.911Z,12.83
2023-02-15T06:37:18.329Z,12.83
2023-02-15T06:39:39.786Z,12.50
2023-02-15T06:42:01.238Z,14.00
2023-02-15T06:44:22.697Z,12.43
2023-02-15T06:46:44.193Z,11.37
2023-02-15T06:49:05.750Z,13.30
2023-02-15T06:51:27.215Z,11.70
2023-02-15T06:53:48.731Z,14.00
2023-02-15T06:56:11.224Z,12.13
2023-02-15T06:58:42.838Z,14.23
2023-02-15T07:01:04.792Z,12.77
2023-02-15T07:03:26.231Z,12.43
2023-02-15T07:05:49.739Z,13.03
2023-02-15T07:08:11.208Z,11.73
2023-02-15T07:10:32.650Z,12.37
2023-02-15T07:12:54.501Z,11.73
2023-02-15T07:15:18.331Z,13.53
2023-02-15T07:17:40.516Z,12.93
2023-02-15T07:20:03.325Z,11.37
2023-02-15T07:22:24.749Z,10.40
2023-02-15T07:24:46.252Z,13.63
2023-02-15T07:27:08.847Z,13.37
2023-02-15T07:29:30.299Z,14.17
2023-02-15T07:31:51.781Z,13.97
2023-02-15T07:34:13.358Z,12.83
2023-02-15T07:36:34.781Z,13.53
2023-02-15T07:38:56.213Z,12.17
2023-02-15T07:41:17.806Z,11.80
2023-02-15T07:43:42.705Z,11.93
2023-02-15T07:46:06.713Z,14.67
2023-02-15T07:48:28.285Z,11.97
2023-02-15T07:50:49.730Z,11.87
2023-02-15T07:53:11.212Z,11.87
2023-02-15T07:55:32.740Z,11.07
2023-02-15T07:57:55.028Z,12.63
2023-02-15T08:00:19.398Z,11.20
2023-02-15T08:02:40.899Z,10.80
2023-02-15T08:05:02.359Z,11.67
2023-02-15T08:07:23.817Z,10.93
2023-02-15T08:09:45.258Z,11.40
2023-02-15T08:12:07.176Z,13.03
2023-02-15T08:14:28.981Z,14.10
2023-02-15T08:16:53.243Z,11.20
2023-02-15T08:19:18.804Z,12.10
2023-02-15T08:21:44.083Z,15.67
2023-02-15T08:24:06.982Z,14.43
2023-02-15T08:26:30.337Z,10.80
2023-02-15T08:28:52.899Z,10.53
2023-02-15T08:31:14.884Z,9.77
2023-02-15T08:33:38.543Z,12.50
2023-02-15T08:36:06.864Z,10.73
2023-02-15T08:38:28.297Z,13.03
2023-02-15T08:40:49.725Z,8.37
2023-02-15T08:43:11.200Z,13.90
2023-02-15T08:45:32.790Z,11.07
2023-02-15T08:47:54.233Z,13.57
2023-02-15T08:50:15.826Z,9.30
2023-02-15T08:52:37.322Z,10.43
2023-02-15T08:54:58.768Z,11.60
2023-02-15T08:57:20.190Z,12.33
2023-02-15T08:59:41.641Z,11.50
2023-02-15T09:02:04.104Z,9.13
2023-02-15T09:04:25.608Z,10.17
2023-02-15T09:06:49.470Z,11.13
2023-02-15T09:09:11.859Z,11.33
2023-02-15T09:11:42.148Z,11.27
2023-02-15T09:14:06.532Z,10.17
2023-02-15T09:16:30.619Z,10.63
2023-02-15T09:18:52.624Z,10.80
2023-02-15T09:21:19.815Z,10.90
2023-02-15T09:23:45.211Z,10.10
2023-02-15T09:26:09.989Z,11.37
2023-02-15T09:28:33.564Z,10.80
2023-02-15T09:30:55.067Z,12.53
2023-02-15T09:33:16.511Z,10.07
2023-02-15T09:35:37.979Z,9.87
2023-02-15T09:37:59.388Z,11.73
2023-02-15T09:40:20.848Z,11.13
2023-02-15T09:42:54.190Z,10.23
2023-02-15T09:45:24.614Z,11.60
2023-02-15T09:48:06.294Z,9.70
2023-02-15T09:50:55.119Z,10.77
2023-02-15T09:53:33.326Z,10.20
2023-02-15T09:56:21.232Z,11.17
2023-02-15T09:59:04.698Z,10.67
2023-02-15T10:02:00.430Z,8.43
2023-02-15T10:04:24.592Z,10.70
2023-02-15T10:06:57.798Z,11.30
2023-02-15T10:10:12.170Z,10.37
2023-02-15T10:12:59.734Z,9.40
2023-02-15T10:15:24.997Z,10.40
2023-02-15T10:18:06.687Z,10.33
2023-02-15T10:20:28.098Z,8.97
2023-02-15T10:23:16.252Z,10.80
2023-02-15T10:25:44.163Z,9.40
2023-02-15T10:28:10.140Z,9.87
2023-02-15T10:30:59.222Z,8.80
2023-02-15T10:33:39.032Z,10.17
2023-02-15T10:36:18.501Z,10.93
2023-02-15T10:39:01.347Z,11.33
2023-02-15T10:41:35.409Z,10.60
2023-02-15T10:44:11.423Z,11.87
2023-02-15T10:46:50.365Z,9.33
2023-02-15T10:49:21.370Z,8.80
2023-02-15T10:51:58.049Z,10.37
2023-02-15T10:54:40.879Z,9.70
2023-02-15T10:57:27.228Z,9.93
2023-02-15T11:00:24.985Z,9.77
2023-02-15T11:03:47.307Z,9.23
2023-02-15T11:06:21.654Z,11.37
2023-02-15T11:08:47.528Z,9.70
2023-02-15T11:11:13.179Z,11.27
2023-02-15T11:13:40.803Z,9.63
2023-02-15T11:16:09.306Z,11.10
2023-02-15T11:18:47.892Z,10.23
2023-02-15T11:21:37.894Z,12.37
2023-02-15T11:24:00.834Z,9.87
2023-02-15T11:26:34.146Z,11.10
2023-02-15T11:29:32.206Z,12.57
2023-02-15T11:32:02.429Z,9.30
2023-02-15T11:34:26.820Z,15.10
2023-02-15T11:36:51.502Z,11.87
2023-02-15T11:39:17.224Z,10.87
2023-02-15T11:41:43.064Z,14.53
2023-02-15T11:44:16.232Z,10.83
2023-02-15T11:46:38.196Z,12.77
2023-02-15T11:48:59.834Z,14.73
2023-02-15T11:51:24.145Z,12.20
2023-02-15T11:53:46.959Z,12.90
2023-02-15T11:56:16.132Z,11.70
2023-02-15T11:58:53.487Z,12.67
2023-02-15T12:01:25.565Z,12.40
2023-02-15T12:03:52.720Z,14.33
2023-02-15T12:06:24.519Z,10.47
2023-02-15T12:08:53.689Z,16.23
2023-02-15T12:11:23.397Z,12.80
2023-02-15T12:14:06.426Z,12.60
2023-02-15T12:16:41.308Z,11.97
2023-02-15T12:19:03.410Z,11.10
2023-02-15T12:21:28.913Z,11.63
2023-02-15T12:23:57.416Z,15.03
2023-02-15T12:26:27.657Z,12.83
2023-02-15T12:28:53.067Z,12.97
2023-02-15T12:31:24.416Z,11.43
2023-02-15T12:33:47.025Z,12.30
2023-02-15T12:36:22.200Z,10.63
2023-02-15T12:38:43.940Z,11.83
2023-02-15T12:41:23.760Z,11.40
2023-02-15T12:43:46.200Z,12.13
2023-02-15T12:46:21.297Z,8.73
2023-02-15T12:48:42.789Z,10.33
2023-02-15T12:51:09.779Z,10.80
2023-02-15T12:53:34.009Z,9.83
2023-02-15T12:56:00.977Z,12.20
2023-02-15T12:58:34.168Z,11.50
2023-02-15T13:01:15.032Z,10.93
2023-02-15T13:03:59.015Z,11.47
2023-02-15T13:06:21.793Z,10.17
2023-02-15T13:08:51.311Z,13.90
2023-02-15T13:11:13.835Z,17.13
2023-02-15T13:13:46.631Z,14.00
2023-02-15T13:16:14.815Z,17.43
2023-02-15T13:18:43.233Z,19.00
2023-02-15T13:21:15.163Z,10.63
2023-02-15T13:23:36.932Z,12.23
2023-02-15T13:26:00.897Z,11.47
2023-02-15T13:28:29.151Z,12.27
2023-02-15T13:30:51.363Z,12.20
2023-02-15T13:33:27.274Z,13.00
2023-02-15T13:35:59.204Z,11.37
2023-02-15T13:38:40.929Z,11.63
2023-02-15T13:41:13.643Z,11.70
2023-02-15T13:43:59.836Z,11.17
2023-02-15T13:46:44.475Z,10.73
2023-02-15T13:49:41.692Z,12.00
2023-02-15T13:52:06.005Z,11.97
2023-02-15T13:54:53.632Z,12.43
2023-02-15T13:57:20.841Z,10.83
2023-02-15T14:00:14.828Z,13.60
2023-02-15T14:02:45.022Z,11.90
2023-02-15T14:05:30.285Z,10.53
2023-02-15T14:08:33.744Z,11.27
2023-02-15T14:10:58.131Z,13.97
2023-02-15T14:13:57.221Z,11.43
2023-02-15T14:16:25.528Z,11.93
2023-02-15T14:18:59.814Z,11.53
2023-02-15T14:21:31.215Z,14.53
2023-02-15T14:24:30.492Z,14.40
2023-02-15T14:27:07.383Z,11.80
2023-02-15T14:29:44.085Z,13.23
2023-02-15T14:32:12.841Z,12.30
2023-02-15T14:34:51.342Z,12.33
2023-02-15T14:37:17.615Z,11.20
2023-02-15T14:40:11.067Z,12.27
2023-02-15T14:42:51.986Z,11.40
2023-02-15T14:45:34.365Z,11.90
2023-02-15T14:48:12.779Z,12.87
2023-02-15T14:50:44.072Z,12.63
2023-02-15T14:53:18.631Z,11.93
2023-02-15T14:55:40.060Z,12.10
2023-02-15T14:58:01.556Z,14.10
2023-02-15T15:00:39.831Z,13.83
2023-02-15T15:03:01.498Z,13.50
2023-02-15T15:05:36.168Z,14.73
2023-02-15T15:08:00.900Z,13.13
2023-02-15T15:10:22.295Z,13.00
2023-02-15T15:12:45.811Z,13.43
2023-02-15T15:15:11.885Z,12.80
2023-02-15T15:17:38.882Z,13.37
2023-02-15T15:20:14.723Z,16.20
2023-02-15T15:22:37.434Z,13.00
2023-02-15T15:25:12.186Z,14.17
2023-02-15T15:27:41.212Z,15.03
2023-02-15T15:30:03.851Z,14.47
2023-02-15T15:32:32.414Z,14.40
2023-02-15T15:35:18.984Z,14.30
2023-02-15T15:38:18.754Z,14.27
2023-02-15T15:41:01.443Z,13.97
2023-02-15T15:43:37.236Z,12.60
2023-02-15T15:46:23.719Z,14.80
2023-02-15T15:48:45.624Z,14.20
2023-02-15T15:51:41.127Z,17.23
2023-02-15T15:54:04.922Z,14.70
2023-02-15T15:56:33.355Z,14.63
2023-02-15T15:58:59.297Z,14.50
2023-02-15T16:01:30.152Z,15.70
2023-02-15T16:03:53.955Z,14.47
2023-02-15T16:06:26.685Z,13.00
2023-02-15T16:08:48.265Z,13.50
2023-02-15T16:11:27.045Z,16.43
2023-02-15T16:13:48.561Z,15.53
2023-02-15T16:16:13.743Z,15.37
2023-02-15T16:18:39.845Z,15.33
2023-02-15T16:21:02.581Z,15.23
2023-02-15T16:23:30.078Z,12.43
2023-02-15T16:26:09.510Z,16.33
2023-02-15T16:28:31.150Z,14.80
2023-02-15T16:31:06.366Z,13.97
2023-02-15T16:33:37.462Z,12.73
2023-02-15T16:36:04.017Z,12.77
2023-02-15T16:39:06.294Z,17.33
2023-02-15T16:41:29.496Z,14.20
2023-02-15T16:43:52.762Z,13.57
2023-02-15T16:46:32.538Z,15.67
2023-02-15T16:48:59.503Z,15.83
2023-02-15T16:51:32.967Z,27.60
2023-02-15T16:53:55.822Z,18.90
2023-02-15T16:56:24.458Z,16.77
2023-02-15T16:58:50.895Z,20.33
2023-02-15T17:01:15.418Z,20.57
2023-02-15T17:03:37.435Z,17.33
2023-02-15T17:06:01.317Z,16.70
2023-02-15T17:08:31.388Z,17.20
2023-02-15T17:11:20.867Z,19.10
2023-02-15T17:14:10.891Z,17.60
2023-02-15T17:16:59.483Z,17.60
2023-02-15T17:19:27.506Z,17.00
2023-02-15T17:22:01.462Z,16.03
2023-02-15T17:24:35.563Z,17.40
2023-02-15T17:27:01.758Z,20.17
2023-02-15T17:29:32.558Z,17.50
2023-02-15T17:31:58.536Z,17.73
2023-02-15T17:34:58.697Z,17.23
2023-02-15T17:37:33.624Z,18.83
2023-02-15T17:39:56.073Z,17.30
2023-02-15T17:42:17.569Z,18.40
2023-02-15T17:44:39.014Z,15.73
2023-02-15T17:47:00.430Z,20.77
2023-02-15T17:49:29.340Z,17.70
2023-02-15T17:51:50.790Z,18.73
2023-02-15T17:54:30.757Z,16.20
2023-02-15T17:56:52.179Z,19.53
2023-02-15T17:59:15.180Z,17.53
2023-02-15T18:02:02.119Z,16.20
2023-02-15T18:04:43.510Z,20.80
2023-02-15T18:07:23.939Z,22.47
2023-02-15T18:10:04.484Z,20.93
2023-02-15T18:12:31.552Z,19.83
2023-02-15T18:14:56.990Z,19.93
2023-02-15T18:17:19.346Z,18.37
2023-02-15T18:19:43.036Z,21.90
2023-02-15T18:22:11.432Z,21.80
2023-02-15T18:24:32.864Z,20.13
2023-02-15T18:26:54.582Z,19.87
2023-02-15T18:29:16.400Z,19.70
2023-02-15T18:31:38.168Z,20.90
2023-02-15T18:34:02.598Z,21.83
2023-02-15T18:36:28.260Z,21.00
2023-02-15T18:38:49.902Z,20.93
2023-02-15T18:41:18.589Z,20.13
2023-02-15T18:43:40.019Z,19.43
2023-02-15T18:46:01.524Z,21.70
2023-02-15T18:48:23.034Z,20.93
2023-02-15T18:50:44.804Z,19.83
2023-02-15T18:53:12.027Z,20.73
2023-02-15T18:55:35.383Z,20.33
2023-02-15T18:57:57.288Z,22.37
2023-02-15T19:00:21.600Z,22.50
2023-02-15T19:02:43.352Z,22.87
2023-02-15T19:05:04.977Z,22.77
2023-02-15T19:07:27.958Z,20.50
2023-02-15T19:09:52.855Z,22.90
2023-02-15T19:12:14.323Z,20.83
2023-02-15T19:14:35.790Z,22.73
2023-02-15T19:16:58.937Z,21.73
2023-02-15T19:19:20.685Z,19.27
2023-02-15T19:21:42.364Z,21.60
2023-02-15T19:24:08.712Z,24.50
2023-02-15T19:26:44.348Z,21.67
2023-02-15T19:29:06.471Z,23.37
2023-02-15T19:31:28.015Z,23.47
2023-02-15T19:33:49.527Z,20.77
2023-02-15T19:36:21.565Z,21.97
2023-02-15T19:38:44.427Z,19.63
2023-02-15T19:41:08.445Z,22.03
2023-02-15T19:43:30.314Z,18.87
2023-02-15T19:45:53.078Z,19.50
2023-02-15T19:48:14.927Z,21.53
2023-02-15T19:50:36.417Z,22.70
2023-02-15T19:52:58.030Z,20.03
2023-02-15T19:55:29.411Z,21.10
2023-02-15T19:57:52.337Z,29.77
2023-02-15T20:00:22.285Z,24.97
2023-02-15T20:02:45.035Z,21.10
2023-02-15T20:05:06.949Z,19.30
2023-02-15T20:07:28.700Z,20.53
2023-02-15T20:09:50.303Z,24.90
2023-02-15T20:12:22.053Z,22.43
2023-02-15T20:14:43.490Z,23.60
2023-02-15T20:17:04.948Z,21.43
2023-02-15T20:19:26.407Z,21.83
2023-02-15T20:21:54.525Z,22.83
2023-02-15T20:24:19.130Z,20.70
2023-02-15T20:26:40.649Z,21.70
2023-02-15T20:29:02.305Z,22.17
2023-02-15T20:31:25.690Z,20.03
2023-02-15T20:33:48.294Z,20.80
2023-02-15T20:36:18.793Z,21.13
2023-02-15T20:38:40.462Z,21.60
2023-02-15T20:41:20.615Z,22.10
2023-02-15T20:43:42.330Z,22.03
2023-02-15T20:46:04.434Z,21.93
2023-02-15T20:48:26.024Z,21.80
2023-02-15T20:50:47.600Z,22.23
2023-02-15T20:53:10.706Z,23.53
2023-02-15T20:55:32.424Z,21.30
2023-02-15T20:57:53.901Z,20.80
2023-02-15T21:00:20.752Z,23.10
2023-02-15T21:02:42.227Z,20.87
2023-02-15T21:05:14.542Z,19.27
2023-02-15T21:07:35.975Z,21.60
2023-02-15T21:09:57.406Z,24.03
2023-02-15T21:12:19.867Z,25.73
2023-02-15T21:14:41.320Z,24.73
2023-02-15T21:17:03.114Z,26.90
2023-02-15T21:19:24.978Z,23.73
2023-02-15T21:21:48.187Z,22.67
2023-02-15T21:24:15.756Z,21.60
2023-02-15T21:26:38.510Z,18.60
2023-02-15T21:29:00.064Z,21.80
2023-02-15T21:31:24.637Z,25.17
2023-02-15T21:33:46.243Z,26.77
2023-02-15T21:36:15.101Z,26.87
2023-02-15T21:38:37.365Z,26.93
2023-02-15T21:41:18.793Z,24.93
2023-02-15T21:43:58.894Z,27.53
2023-02-15T21:46:38.862Z,28.57
2023-02-15T21:49:01.804Z,29.17
2023-02-15T21:51:41.916Z,26.37
2023-02-15T21:54:03.369Z,27.03
2023-02-15T21:56:25.216Z,28.23
2023-02-15T21:58:47.198Z,23.67
2023-02-15T22:01:35.136Z,27.43
2023-02-15T22:03:58.923Z,26.97
2023-02-15T22:06:20.650Z,24.30
2023-02-15T22:08:42.207Z,28.67
2023-02-15T22:11:09.858Z,28.00
2023-02-15T22:13:33.911Z,28.53
2023-02-15T22:15:56.663Z,27.80
2023-02-15T22:18:21.960Z,26.63
2023-02-15T22:20:43.404Z,24.43
2023-02-15T22:23:04.852Z,28.17
2023-02-15T22:25:27.072Z,23.53
2023-02-15T22:27:50.171Z,28.33
2023-02-15T22:30:26.188Z,26.70
2023-02-15T22:32:47.701Z,24.20
2023-02-15T22:35:17.377Z,27.63
2023-02-15T22:37:38.840Z,26.23
2023-02-15T22:40:00.265Z,27.23
2023-02-15T22:42:28.653Z,25.77
2023-02-15T22:44:50.286Z,27.27
2023-02-15T22:47:22.964Z,25.80
2023-02-15T22:49:44.383Z,30.50
2023-02-15T22:52:06.336Z,28.33
2023-02-15T22:54:27.760Z,24.27
2023-02-15T22:56:51.906Z,24.83
2023-02-15T22:59:28.328Z,25.33
2023-02-15T23:01:50.204Z,28.17
2023-02-15T23:04:17.142Z,27.97
2023-02-15T23:06:38.633Z,25.53
2023-02-15T23:09:00.832Z,29.63
2023-02-15T23:11:22.461Z,29.63
2023-02-15T23:13:43.983Z,27.50
2023-02-15T23:16:07.047Z,26.97
2023-02-15T23:18:36.884Z,28.30
2023-02-15T23:21:06.497Z,26.97
2023-02-15T23:23:40.919Z,28.43
2023-02-15T23:26:04.579Z,27.40
2023-02-15T23:28:28.087Z,27.77
2023-02-15T23:30:50.173Z,26.83
2023-02-15T23:33:12.241Z,30.80
2023-02-15T23:35:33.659Z,29.37
2023-02-15T23:37:55.108Z,31.83
2023-02-15T23:40:37.162Z,33.23
2023-02-15T23:42:58.735Z,30.73
2023-02-15T23:45:23.813Z,36.77
2023-02-15T23:48:05.018Z,32.47
2023-02-15T23:50:29.180Z,30.40
2023-02-15T23:52:51.696Z,35.80
2023-02-15T23:55:14.135Z,31.87
2023-02-15T23:57:35.594Z,36.97
2023-02-15T23:59:57.044Z,34.03
